Redwood City, CA (94065)

4:33 PM PDT on July 29, 2016 (GMT -0700)
Stratford Bay | | Change Station

Elev -10 ft 37.54 °N, 122.24 °W | Updated 231 days ago

Clear
Clear
69 °F
Feels Like 69 °F
N
9
Wind Variable Wind from NW
Gusts mph

Today
High -- | Low -- °F
--% Chance of Precip.
Yesterday
High -- | Low -- °F
Precip. -- in
Pressure 29.80 in
Visibility 10.0 miles
Clouds Few 2800 ft
Dew Point 55 °F
Humidity 60%
Rainfall in
Snow Depth Not available.
6:11 AM 8:19 PM
Waning Crescent, 18% visible
METAR KSQL 292250Z 01011KT 10SM FEW028 24/15 A2980
Pressure 29.80 in
Visibility 10.0 miles
Clouds Few 2800 ft
Dew Point 55 °F
Humidity 60%
Rainfall in
Snow Depth Not available.
6:11 AM 8:19 PM
Waning Crescent, 18% visible
METAR KSQL 292250Z 01011KT 10SM FEW028 24/15 A2980

10-Day Weather Forecast

Almanac

Astronomy

Jul. 29, 2016 Rise Set
Actual Time
Civil Twilight
Nautical Twilight
Astronomical Twilight
Moon
Length of Visible Light
Length of Day
Tomorrow will be .
, % of the Moon is Illuminated

Today's Extremes

State Highs State Lows

Community

WunderPhotos

Upload Photos

1,928,439 photos uploaded!

WunderBlog® & News

Nearby

Air Quality

  Air Quality AQ Index Pollutant
Not available.

Snow Depth

Station Depth Elevation

Earthquake Activity

City Distance Mag. Time & Date
Minimum magnitude displayed is 2.5.

Coastal Water Temperatures

Place Temperature

Stations

Nearby Weather Stations

Station Location Temp. Windchill Dew Point Humidity Wind Precip. Elev Updated Type
                   

Watches & Warnings

There are currently no watches in effect.